Time;durP1;ratioP1;P1;durP2;ratioP2;P2;SDS_P1;SDS_P2;PMS_P1;PMS_P2;Temp;Humidity;BMP_temperature;BMP_pressure;BME280_temperature;BME280_humidity;BME280_pressure;Samples;Min_cycle;Max_cycle;Signal;HPM_P1;HPM_P2
2021/11/09 00:02:02;;;;;;;;;69.50;53.75;;;;;9.28;64.29;102412.53;4963792;28;45466;-80
2021/11/09 00:04:35;;;;;;;;;68.00;54.00;;;;;9.22;64.45;102414.28;4979238;28;45451;-80
2021/11/09 00:07:07;;;;;;;;;72.00;54.00;;;;;9.22;64.53;102419.53;4967249;28;45554;-80
2021/11/09 00:09:54;;;;;;;;;69.50;55.25;;;;;9.22;64.78;102409.03;4970573;28;45448;-79
2021/11/09 00:14:43;;;;;;;;;33.00;27.50;;;;;10.43;72.70;102384.16;5093610;27;45271;-67
2021/11/09 00:17:09;;;;;;;;;28.00;25.00;;;;;11.71;71.32;102379.59;5076629;28;45317;-68
2021/11/09 00:19:34;;;;;;;;;31.50;28.50;;;;;12.90;69.38;102372.75;5076130;28;45941;-68
2021/11/09 00:21:59;;;;;;;;;27.25;24.50;;;;;13.95;67.36;102376.09;5075237;27;45347;-68
2021/11/09 00:24:26;;;;;;;;;25.75;24.25;;;;;14.94;67.18;102367.72;5075374;28;45344;-69
2021/11/09 00:26:51;;;;;;;;;26.75;24.75;;;;;15.85;64.47;102360.84;5076294;28;45471;-71
2021/11/09 00:29:16;;;;;;;;;28.25;25.25;;;;;16.50;63.37;102353.63;5076515;28;45401;-70
2021/11/09 00:33:05;;;;;;;;;64.75;51.25;;;;;16.53;54.51;102369.47;5027057;27;45507;-81
2021/11/09 00:35:33;;;;;;;;;66.50;51.25;;;;;15.65;53.77;102382.66;5021659;27;45240;-82
2021/11/09 00:38:02;;;;;;;;;66.50;51.50;;;;;14.77;54.20;102379.59;4994264;27;45396;-81
2021/11/09 00:40:29;;;;;;;;;69.00;54.75;;;;;13.99;54.69;102386.63;4990702;28;45347;-81
2021/11/09 00:42:55;;;;;;;;;76.00;56.75;;;;;13.33;55.55;102377.31;4991731;28;46503;-81
2021/11/09 00:45:21;;;;;;;;;74.00;57.25;;;;;12.83;55.77;102381.66;4987181;28;45431;-81
2021/11/09 00:47:46;;;;;;;;;65.75;51.75;;;;;12.33;56.25;102374.47;5004067;27;45439;-81
2021/11/09 00:50:13;;;;;;;;;65.00;51.25;;;;;11.92;57.09;102369.72;5000376;28;45234;-81
2021/11/09 00:52:39;;;;;;;;;68.50;53.00;;;;;11.56;57.75;102372.75;4991968;28;45469;-81
2021/11/09 00:55:07;;;;;;;;;64.00;51.50;;;;;11.25;57.89;102364.28;4992921;28;45396;-87
2021/11/09 00:57:33;;;;;;;;;70.25;54.00;;;;;10.98;58.38;102368.03;4990892;28;45330;-81
2021/11/09 00:59:58;;;;;;;;;70.75;54.50;;;;;10.74;58.76;102378.72;4991831;28;45388;-81
2021/11/09 01:02:24;;;;;;;;;69.00;53.25;;;;;10.50;59.27;102383.25;4992879;28;46359;-81
2021/11/09 01:04:49;;;;;;;;;70.00;53.25;;;;;10.31;59.83;102391.25;4991545;28;45379;-81
2021/11/09 01:07:15;;;;;;;;;68.25;54.00;;;;;10.17;60.17;102398.31;4993026;28;45359;-81
2021/11/09 01:09:40;;;;;;;;;72.25;56.00;;;;;9.99;60.64;102387.00;4991846;28;45310;-81
2021/11/09 01:12:08;;;;;;;;;70.25;57.00;;;;;9.86;60.79;102388.78;4991557;28;45317;-81
2021/11/09 01:14:34;;;;;;;;;69.00;51.25;;;;;9.73;60.84;102391.44;4983183;28;45238;-80
2021/11/09 01:17:00;;;;;;;;;70.00;53.75;;;;;9.62;61.12;102395.88;4981233;28;45290;-81
2021/11/09 01:19:27;;;;;;;;;69.75;55.75;;;;;9.52;61.01;102395.00;4991887;28;45449;-81
2021/11/09 01:21:53;;;;;;;;;63.75;53.00;;;;;9.43;61.71;102401.16;4992655;28;45459;-81
2021/11/09 01:24:19;;;;;;;;;67.00;53.25;;;;;9.34;61.72;102402.91;4992366;28;45330;-81
2021/11/09 01:26:46;;;;;;;;;71.50;56.00;;;;;9.28;61.96;102399.41;4982066;28;45438;-81
2021/11/09 01:29:14;;;;;;;;;71.50;55.50;;;;;9.22;61.86;102406.41;4987476;28;45275;-80
2021/11/09 01:31:41;;;;;;;;;73.25;55.50;;;;;9.16;62.51;102400.31;4992254;28;45279;-80
2021/11/09 01:34:07;;;;;;;;;76.75;58.25;;;;;9.07;62.49;102401.16;4991627;28;45872;-81
2021/11/09 01:36:32;;;;;;;;;67.75;53.25;;;;;9.03;62.38;102402.03;4991717;28;45503;-81
2021/11/09 01:38:58;;;;;;;;;74.50;60.50;;;;;8.98;62.67;102399.41;4990625;28;45465;-81
2021/11/09 01:41:24;;;;;;;;;75.25;57.00;;;;;8.94;62.71;102401.16;4992311;28;45397;-81
2021/11/09 01:43:51;;;;;;;;;72.25;57.00;;;;;8.92;63.18;102416.00;4982450;28;45260;-81
2021/11/09 01:46:17;;;;;;;;;72.50;57.25;;;;;8.85;62.78;102404.66;4962918;28;45256;-81
2021/11/09 01:48:43;;;;;;;;;71.25;56.25;;;;;8.83;63.03;102406.41;4977032;28;45234;-81
2021/11/09 01:51:12;;;;;;;;;74.00;59.00;;;;;8.79;63.39;102412.50;4978912;28;45215;-81
2021/11/09 01:53:39;;;;;;;;;75.00;57.50;;;;;8.76;62.76;102410.78;4979219;28;45434;-81
2021/11/09 01:56:08;;;;;;;;;73.00;56.50;;;;;8.71;63.32;102407.25;4977818;28;45493;-81
2021/11/09 01:58:33;;;;;;;;;73.00;56.50;;;;;8.69;63.41;102411.63;4966668;28;45519;-81
2021/11/09 02:01:03;;;;;;;;;75.25;57.00;;;;;8.69;63.48;102413.38;4978983;28;45255;-81
2021/11/09 02:03:29;;;;;;;;;73.25;55.50;;;;;8.66;63.48;102415.13;4978796;28;45903;-81
2021/11/09 02:05:55;;;;;;;;;69.25;53.00;;;;;8.62;63.39;102401.97;4976278;28;45469;-82
2021/11/09 02:08:24;;;;;;;;;76.50;58.75;;;;;8.59;63.61;102405.50;4972217;28;46508;-82
2021/11/09 02:10:50;;;;;;;;;72.50;58.00;;;;;8.57;63.53;102408.94;4989932;28;46596;-82
2021/11/09 02:13:17;;;;;;;;;69.25;54.50;;;;;8.57;63.92;102414.19;4979061;28;45718;-82
2021/11/09 02:15:43;;;;;;;;;71.50;55.25;;;;;8.53;63.35;102408.06;4978655;28;45311;-82
2021/11/09 02:18:11;;;;;;;;;74.50;56.50;;;;;8.50;63.27;102406.28;4974068;28;45385;-82
2021/11/09 02:20:37;;;;;;;;;69.50;54.25;;;;;8.52;63.71;102408.94;5063177;28;47299;-83
2021/11/09 02:23:05;;;;;;;;;68.50;55.50;;;;;8.49;63.72;102417.66;4983853;28;45659;-83
2021/11/09 02:25:32;;;;;;;;;74.25;60.00;;;;;8.48;63.83;102410.66;4983872;27;45273;-82
2021/11/09 02:28:00;;;;;;;;;71.00;55.75;;;;;8.43;64.17;102415.91;4977851;28;45768;-82
2021/11/09 02:30:28;;;;;;;;;76.50;60.00;;;;;8.44;64.24;102420.25;4978779;28;45352;-83
2021/11/09 02:32:56;;;;;;;;;70.50;55.25;;;;;8.45;63.60;102421.13;4976549;28;46713;-83
2021/11/09 02:35:22;;;;;;;;;74.00;58.50;;;;;8.40;63.79;102417.63;4983642;28;45384;-83
2021/11/09 02:37:52;;;;;;;;;76.50;58.00;;;;;8.39;64.05;102421.13;4984475;28;46203;-83
2021/11/09 02:40:19;;;;;;;;;80.25;63.25;;;;;8.36;63.95;102427.22;4975894;28;48125;-83
2021/11/09 02:42:48;;;;;;;;;79.50;61.50;;;;;8.34;64.28;102428.97;4978278;28;45306;-83
2021/11/09 02:45:26;;;;;;;;;81.00;63.75;;;;;8.35;64.25;102428.06;4978738;28;45337;-81
2021/11/09 02:47:58;;;;;;;;;80.75;64.50;;;;;8.33;64.15;102433.31;4978491;28;45215;-81
2021/11/09 02:50:28;;;;;;;;;77.50;62.25;;;;;8.33;64.26;102425.47;4964855;28;46791;-81
2021/11/09 02:53:26;;;;;;;;;75.50;58.25;;;;;8.30;64.33;102420.22;4977805;28;46686;-81
2021/11/09 02:55:47;;;;;;;;;72.00;57.50;;;;;8.31;64.45;102427.22;4965020;28;45212;-81
2021/11/09 03:03:21;;;;;;;;;77.00;59.50;;;;;8.29;64.80;102430.69;4978189;28;45769;-83
2021/11/09 03:05:59;;;;;;;;;74.00;57.75;;;;;8.28;64.71;102434.16;4966878;28;45255;-83
2021/11/09 03:08:32;;;;;;;;;74.25;59.50;;;;;8.27;64.45;102427.19;4978232;28;45264;-84
2021/11/09 03:10:59;;;;;;;;;79.25;61.75;;;;;8.24;64.80;102420.19;4973555;28;47608;-83
2021/11/09 03:13:24;;;;;;;;;76.00;59.00;;;;;8.24;64.55;102417.56;4978197;28;45649;-83
2021/11/09 03:15:51;;;;;;;;;75.50;61.25;;;;;8.23;64.39;102428.91;4993490;28;45871;-83
2021/11/09 03:18:21;;;;;;;;;70.75;54.50;;;;;8.21;64.13;102421.06;4964171;28;45398;-85
2021/11/09 03:20:55;;;;;;;;;75.00;57.25;;;;;8.21;64.27;102422.78;4977646;28;46312;-85
2021/11/09 03:45:32;;;;;;;;;73.25;57.75;;;;;8.03;64.71;102424.47;4980405;28;45470;-84
2021/11/09 03:48:08;;;;;;;;;77.25;59.75;;;;;8.02;64.35;102417.47;4977361;28;45274;-84
2021/11/09 03:50:36;;;;;;;;;75.75;59.00;;;;;8.02;64.70;102416.59;4977541;28;45237;-82
2021/11/09 03:53:08;;;;;;;;;74.00;58.00;;;;;7.99;64.56;102410.50;4990495;28;45516;-83
2021/11/09 03:58:37;;;;;;;;;77.75;61.00;;;;;8.00;64.18;102421.81;4977602;28;45254;-86
2021/11/09 04:01:08;;;;;;;;;73.75;57.50;;;;;7.97;64.54;102416.59;4980996;28;45339;-89
2021/11/09 04:11:16;;;;;;;;;75.25;58.25;;;;;7.92;64.67;102421.78;4977340;28;45544;-87
2021/11/09 04:13:50;;;;;;;;;80.00;60.25;;;;;7.91;64.96;102420.03;4977441;28;45413;-87
2021/11/09 04:24:20;;;;;;;;;73.75;57.25;;;;;7.86;65.02;102426.97;4977339;28;45349;-79
2021/11/09 04:26:58;;;;;;;;;70.75;58.75;;;;;7.83;64.86;102422.59;4985521;27;45454;-79
2021/11/09 05:09:53;;;;;;;;;72.25;57.00;;;;;7.64;65.21;102459.13;4970100;28;45719;-80
2021/11/09 05:12:18;;;;;;;;;68.25;55.25;;;;;7.69;64.82;102463.53;4976648;27;45484;-80
2021/11/09 05:14:44;;;;;;;;;70.00;52.50;;;;;7.67;65.15;102458.28;4976132;28;45492;-80
2021/11/09 05:17:09;;;;;;;;;69.00;55.00;;;;;7.68;65.00;102459.16;4976475;28;45522;-81
2021/11/09 05:19:35;;;;;;;;;57.50;45.50;;;;;7.69;65.13;102458.28;4978024;28;45277;-81
2021/11/09 05:22:00;;;;;;;;;71.00;55.00;;;;;7.67;65.30;102460.03;4978866;28;45402;-80
2021/11/09 05:24:26;;;;;;;;;67.00;51.75;;;;;7.68;64.89;102469.63;4979169;28;45471;-80
2021/11/09 05:26:52;;;;;;;;;64.50;52.75;;;;;7.68;65.39;102464.41;4973975;28;46355;-81
2021/11/09 05:29:17;;;;;;;;;71.75;55.00;;;;;7.68;65.16;102461.78;4978113;28;45350;-82
2021/11/09 05:31:43;;;;;;;;;64.75;51.25;;;;;7.67;64.99;102470.50;4978456;28;45644;-80
2021/11/09 05:34:10;;;;;;;;;63.00;48.75;;;;;7.67;65.44;102470.50;4983586;28;45345;-81
2021/11/09 05:36:38;;;;;;;;;67.00;53.00;;;;;7.67;65.20;102475.72;4979325;28;45444;-81
2021/11/09 05:39:17;;;;;;;;;70.00;54.00;;;;;7.68;65.59;102474.88;4979443;28;45253;-81
2021/11/09 05:41:43;;;;;;;;;63.50;52.25;;;;;7.65;65.22;102478.34;4978666;28;45306;-80
2021/11/09 05:44:09;;;;;;;;;61.25;47.00;;;;;7.68;65.27;102480.09;4979200;28;45444;-79
2021/11/09 05:46:37;;;;;;;;;66.00;52.50;;;;;7.66;64.98;102482.69;4978970;28;46360;-79
2021/11/09 05:49:03;;;;;;;;;67.75;52.50;;;;;7.65;65.19;102486.19;4977626;28;45221;-80
2021/11/09 05:51:29;;;;;;;;;67.00;51.25;;;;;7.63;65.68;102487.94;4978313;28;45231;-80
2021/11/09 05:53:55;;;;;;;;;62.75;45.75;;;;;7.64;65.57;102490.53;4978959;28;45446;-83
2021/11/09 05:56:21;;;;;;;;;66.25;51.75;;;;;7.62;65.03;102487.03;4979077;28;45453;-82
2021/11/09 05:58:46;;;;;;;;;61.75;50.50;;;;;7.62;65.47;102492.28;4979091;28;45409;-81
2021/11/09 06:01:12;;;;;;;;;58.50;47.00;;;;;7.62;65.33;102492.28;4978374;28;45305;-80
2021/11/09 06:03:37;;;;;;;;;62.25;50.75;;;;;7.63;65.42;102499.25;4978353;28;45446;-80
2021/11/09 06:06:03;;;;;;;;;61.50;49.00;;;;;7.62;65.22;102500.13;4979133;28;45453;-80
2021/11/09 06:08:28;;;;;;;;;56.25;46.75;;;;;7.62;65.60;102507.09;4978870;28;45311;-80
2021/11/09 06:10:54;;;;;;;;;61.50;46.75;;;;;7.60;65.79;102499.25;4978361;28;45390;-83
2021/11/09 06:13:19;;;;;;;;;50.75;43.00;;;;;7.60;65.58;102509.72;4978484;28;45301;-79
2021/11/09 06:15:45;;;;;;;;;54.25;45.00;;;;;7.61;65.47;102505.34;4979023;28;45335;-78
2021/11/09 06:18:11;;;;;;;;;55.25;45.25;;;;;7.60;65.18;102509.72;4983613;28;45396;-81
2021/11/09 06:20:37;;;;;;;;;49.75;41.00;;;;;7.59;65.61;102517.53;4977374;28;45338;-83
2021/11/09 06:23:03;;;;;;;;;56.00;44.00;;;;;7.57;65.47;102516.66;4978366;28;45465;-83
2021/11/09 06:25:28;;;;;;;;;53.00;41.75;;;;;7.59;65.25;102518.41;4978053;28;45512;-83
2021/11/09 06:27:54;;;;;;;;;53.25;42.25;;;;;7.58;65.60;102521.88;4972017;28;45217;-83
2021/11/09 06:30:22;;;;;;;;;48.25;40.50;;;;;7.57;65.37;102520.16;4977267;28;45261;-83
2021/11/09 06:32:49;;;;;;;;;46.50;38.75;;;;;7.58;65.41;102521.88;4978219;28;45425;-83
2021/11/09 06:35:15;;;;;;;;;47.00;39.50;;;;;7.55;65.72;102527.13;4978212;28;45356;-82
2021/11/09 06:37:40;;;;;;;;;50.75;39.75;;;;;7.58;65.66;102532.34;4977712;28;45459;-82
2021/11/09 06:40:07;;;;;;;;;51.25;44.00;;;;;7.57;65.46;102535.84;4978593;28;45423;-82
2021/11/09 06:42:33;;;;;;;;;53.00;42.25;;;;;7.56;65.48;102522.72;4977531;28;45595;-83
2021/11/09 06:44:59;;;;;;;;;58.25;44.25;;;;;7.54;65.77;102530.59;4978158;28;46242;-83
2021/11/09 06:47:24;;;;;;;;;52.50;43.50;;;;;7.53;65.31;102524.47;4978660;28;45231;-81
2021/11/09 06:49:50;;;;;;;;;55.75;43.25;;;;;7.53;65.57;102534.94;4976997;28;45643;-79
2021/11/09 06:52:15;;;;;;;;;50.50;39.50;;;;;7.52;65.36;102534.94;4977829;28;45378;-77
2021/11/09 06:54:42;;;;;;;;;52.75;40.25;;;;;7.52;65.36;102534.94;4975949;28;46822;-78
2021/11/09 06:57:08;;;;;;;;;52.50;42.75;;;;;7.53;65.61;102545.41;4974124;28;45486;-78
2021/11/09 06:59:34;;;;;;;;;52.50;42.00;;;;;7.51;65.72;102538.41;4974044;28;45501;-78
2021/11/09 07:01:59;;;;;;;;;55.00;43.25;;;;;7.51;65.98;102541.00;4973282;28;45482;-78
2021/11/09 07:04:25;;;;;;;;;51.00;42.50;;;;;7.52;65.38;102540.16;4975872;28;45645;-78
2021/11/09 07:06:50;;;;;;;;;55.25;42.75;;;;;7.51;65.24;102551.47;4974329;28;45579;-78
2021/11/09 07:09:16;;;;;;;;;53.75;43.25;;;;;7.50;65.78;102549.75;4977846;28;45350;-78
2021/11/09 07:11:42;;;;;;;;;55.75;44.00;;;;;7.49;65.94;102546.25;4978193;28;45176;-77
2021/11/09 07:14:08;;;;;;;;;53.25;41.50;;;;;7.52;65.53;102550.63;4977254;28;46234;-78
2021/11/09 07:16:34;;;;;;;;;49.25;39.75;;;;;7.51;65.57;102552.38;4996043;28;45222;-78
2021/11/09 07:19:02;;;;;;;;;44.25;36.50;;;;;7.55;65.35;102561.13;4996636;27;45438;-78
2021/11/09 07:21:29;;;;;;;;;45.00;38.50;;;;;7.54;65.79;102559.38;4977072;28;45540;-78
2021/11/09 07:23:55;;;;;;;;;40.75;34.25;;;;;7.54;66.28;102556.75;4975171;28;45470;-78
2021/11/09 07:26:20;;;;;;;;;46.25;38.75;;;;;7.56;66.26;102568.09;4959083;28;45358;-78
2021/11/09 07:28:46;;;;;;;;;40.50;35.00;;;;;7.58;66.40;102566.38;4974219;28;45449;-78
2021/11/09 07:31:15;;;;;;;;;45.00;36.00;;;;;7.62;66.22;102569.91;5034362;28;45505;-78
2021/11/09 07:33:41;;;;;;;;;45.75;36.50;;;;;7.61;66.58;102568.16;4977443;28;45347;-78
2021/11/09 07:36:06;;;;;;;;;50.00;37.50;;;;;7.63;66.24;102572.53;4976056;28;45486;-78
2021/11/09 07:38:32;;;;;;;;;52.50;40.75;;;;;7.68;66.76;102574.34;4977940;28;45454;-77
2021/11/09 07:40:58;;;;;;;;;47.00;37.25;;;;;7.68;66.37;102574.34;4976376;28;45410;-77
2021/11/09 07:43:24;;;;;;;;;48.75;38.75;;;;;7.73;66.57;102580.50;4974342;28;45445;-78
2021/11/09 07:45:49;;;;;;;;;46.50;37.00;;;;;7.76;66.53;102589.22;4972866;28;45555;-78
2021/11/09 07:48:15;;;;;;;;;40.00;35.00;;;;;7.74;66.92;102587.47;4976735;28;45832;-78
2021/11/09 07:50:40;;;;;;;;;47.00;35.75;;;;;7.78;67.01;102597.09;4977829;28;45517;-77
2021/11/09 07:53:08;;;;;;;;;46.00;38.00;;;;;7.81;66.67;102584.03;4975923;28;46378;-77
2021/11/09 07:55:39;;;;;;;;;47.25;36.75;;;;;7.82;66.79;102580.56;4971662;28;45868;-76
2021/11/09 07:58:11;;;;;;;;;49.25;38.50;;;;;7.86;66.62;102589.31;4977788;28;45484;-76
2021/11/09 08:00:39;;;;;;;;;49.50;38.25;;;;;7.86;66.94;102584.06;4977486;28;45295;-76
2021/11/09 08:03:17;;;;;;;;;50.75;38.75;;;;;7.91;66.55;102586.72;4977645;28;45607;-76
2021/11/09 08:08:25;;;;;;;;;51.50;38.75;;;;;7.91;66.91;102591.97;4977656;28;45326;-76
2021/11/09 08:10:51;;;;;;;;;49.25;37.75;;;;;7.92;66.23;102592.00;4977467;28;45367;-76
2021/11/09 08:13:16;;;;;;;;;47.25;39.25;;;;;7.92;66.70;102575.41;4975987;28;46881;-76
2021/11/09 08:15:41;;;;;;;;;51.75;38.75;;;;;7.96;66.55;102591.16;4966325;28;45286;-76
2021/11/09 08:18:07;;;;;;;;;53.50;39.00;;;;;7.96;66.50;102590.25;4974564;28;45209;-76
2021/11/09 08:20:34;;;;;;;;;54.75;41.75;;;;;7.96;66.74;102585.03;5010754;28;45318;-77
2021/11/09 08:23:00;;;;;;;;;48.50;39.75;;;;;7.98;66.10;102589.41;4973787;28;45322;-76
2021/11/09 08:25:25;;;;;;;;;50.50;40.25;;;;;7.97;66.63;102586.78;4975916;28;45326;-76
2021/11/09 08:27:51;;;;;;;;;52.00;41.00;;;;;7.99;66.69;102583.31;4969574;28;45557;-76
2021/11/09 08:30:16;;;;;;;;;54.00;40.50;;;;;8.02;66.46;102589.44;4984616;28;45598;-76
2021/11/09 08:32:42;;;;;;;;;57.75;40.75;;;;;8.02;66.70;102589.44;4975591;28;45368;-76
2021/11/09 08:35:11;;;;;;;;;57.00;44.25;;;;;8.04;66.28;102598.19;4976740;28;45934;-76
2021/11/09 08:37:37;;;;;;;;;52.75;42.00;;;;;8.06;66.41;102599.06;4972736;28;45338;-76
2021/11/09 08:40:08;;;;;;;;;52.75;43.75;;;;;8.05;66.34;102594.72;4960201;28;45452;-76
2021/11/09 08:42:38;;;;;;;;;56.25;44.00;;;;;8.03;66.15;102586.81;4969588;28;45361;-76
2021/11/09 08:47:33;;;;;;;;;55.00;44.50;;;;;8.07;66.44;102593.88;4976520;28;45211;-76
2021/11/09 08:49:58;;;;;;;;;51.75;42.25;;;;;8.09;66.53;102594.75;4974809;28;45326;-76
2021/11/09 08:52:26;;;;;;;;;57.25;44.00;;;;;8.09;66.49;102604.34;4973448;28;46185;-76
2021/11/09 09:05:26;;;;;;;;;55.75;44.50;;;;;8.13;66.58;102597.38;4978369;28;45353;-76
2021/11/09 09:07:52;;;;;;;;;58.00;47.25;;;;;8.14;66.69;102593.88;4980051;28;45451;-76
2021/11/09 09:10:19;;;;;;;;;50.75;42.00;;;;;8.17;66.89;102586.91;4985494;28;45655;-76
2021/11/09 09:12:45;;;;;;;;;56.75;44.50;;;;;8.20;66.73;102588.69;4990580;28;45366;-76
2021/11/09 09:15:14;;;;;;;;;59.00;46.25;;;;;8.21;67.04;102585.22;4992480;28;45911;-76
2021/11/09 09:17:41;;;;;;;;;60.00;49.50;;;;;8.26;66.36;102590.47;5004715;28;45223;-76
2021/11/09 09:20:37;;;;;;;;;59.00;46.75;;;;;8.27;66.64;102590.47;4979330;28;45759;-76
2021/11/09 09:23:11;;;;;;;;;58.75;46.75;;;;;8.30;66.53;102584.38;4975365;28;45248;-76
2021/11/09 09:25:44;;;;;;;;;66.25;48.75;;;;;8.30;66.97;102580.03;4975045;28;46097;-76
2021/11/09 09:56:19;;;;;;;;;48.50;38.00;;;;;15.58;57.18;102575.41;5114068;27;45422;-75
2021/11/09 10:00:26;;;;;;;;;38.25;32.00;;;;;14.95;58.53;102568.03;5093012;27;45507;-62
2021/11/09 10:02:54;;;;;;;;;34.25;32.00;;;;;15.04;58.48;102567.84;5096777;27;45379;-63
2021/11/09 10:06:58;;;;;;;;;45.75;37.50;;;;;14.49;56.61;102557.53;5114028;27;45325;-77
2021/11/09 10:09:35;;;;;;;;;45.75;34.00;;;;;13.88;56.73;102561.31;5103714;27;45434;-77
2021/11/09 10:12:20;;;;;;;;;43.75;38.00;;;;;13.32;56.88;102560.41;5086188;27;45492;-77
2021/11/09 10:14:50;;;;;;;;;44.75;36.50;;;;;12.85;57.59;102566.34;5095828;27;45371;-77
2021/11/09 10:17:19;;;;;;;;;49.50;39.00;;;;;12.38;58.04;102552.84;5094091;27;45408;-77
2021/11/09 10:19:46;;;;;;;;;49.00;39.00;;;;;12.07;58.65;102560.16;5086390;27;45429;-77
2021/11/09 10:22:17;;;;;;;;;48.50;39.50;;;;;11.77;59.06;102552.53;5087527;27;45372;-77
2021/11/09 10:24:50;;;;;;;;;48.50;39.00;;;;;11.50;59.68;102557.16;5090159;27;45580;-77
2021/11/09 10:27:16;;;;;;;;;47.25;36.25;;;;;11.28;59.84;102562.56;5094699;27;45515;-77
2021/11/09 10:29:43;;;;;;;;;47.25;38.00;;;;;11.09;59.91;102560.91;5090269;27;45408;-77
2021/11/09 10:32:10;;;;;;;;;51.00;38.25;;;;;10.93;60.64;102554.00;5087442;27;45226;-77
2021/11/09 10:34:37;;;;;;;;;55.00;42.50;;;;;10.79;60.82;102550.53;5095829;27;45406;-77
2021/11/09 10:37:33;;;;;;;;;50.75;38.50;;;;;10.68;61.16;102553.22;5094666;27;46391;-77
2021/11/09 10:40:10;;;;;;;;;46.00;38.50;;;;;10.56;61.50;102551.53;5075808;27;45676;-77
2021/11/09 10:42:41;;;;;;;;;50.50;40.25;;;;;10.47;61.72;102548.88;5092283;27;45472;-77
2021/11/09 10:45:10;;;;;;;;;47.75;39.25;;;;;10.43;61.55;102545.41;5090227;27;45560;-77
2021/11/09 10:47:44;;;;;;;;;51.75;40.25;;;;;10.38;61.79;102549.78;5092569;27;46015;-77
2021/11/09 10:50:20;;;;;;;;;47.50;37.25;;;;;10.32;62.07;102548.03;5106556;27;45433;-77
2021/11/09 10:52:48;;;;;;;;;49.00;37.25;;;;;10.30;61.95;102551.56;5090217;27;45685;-77
2021/11/09 10:57:59;;;;;;;;;47.00;38.75;;;;;10.27;62.10;102546.31;5091909;27;45428;-77
2021/11/09 11:06:07;;;;;;;;;50.50;37.75;;;;;10.21;62.60;102536.69;5095082;27;45398;-77
2021/11/09 11:08:33;;;;;;;;;48.00;38.00;;;;;10.22;62.98;102538.47;5094933;27;46574;-77
2021/11/09 11:11:13;;;;;;;;;46.25;35.25;;;;;10.23;62.55;102532.31;5094610;27;45453;-77
2021/11/09 11:13:39;;;;;;;;;47.75;38.50;;;;;10.28;62.39;102532.28;5095134;27;45397;-77
2021/11/09 11:16:16;;;;;;;;;50.50;37.25;;;;;10.28;62.07;102527.91;5094053;27;45407;-77
2021/11/09 11:18:53;;;;;;;;;43.00;35.50;;;;;10.29;62.38;102523.53;5063527;28;46707;-77
2021/11/09 11:21:21;;;;;;;;;35.50;32.25;;;;;10.33;62.08;102522.63;5055059;28;45897;-77
2021/11/09 11:23:47;;;;;;;;;49.00;37.25;;;;;10.38;62.64;102518.25;5060887;28;45422;-77
2021/11/09 11:26:13;;;;;;;;;38.75;33.75;;;;;10.41;62.40;102512.09;5059328;28;45418;-77
2021/11/09 11:28:41;;;;;;;;;34.50;31.25;;;;;10.45;62.31;102505.94;5061155;28;45322;-77
2021/11/09 11:31:08;;;;;;;;;31.25;25.25;;;;;10.47;62.09;102497.19;5054251;28;45292;-77
2021/11/09 11:33:35;;;;;;;;;32.25;29.25;;;;;10.52;61.61;102499.81;5040024;28;45467;-77
2021/11/09 11:36:01;;;;;;;;;20.50;19.50;;;;;10.56;61.12;102490.16;5054694;28;45390;-77
2021/11/09 11:38:27;;;;;;;;;17.50;14.50;;;;;10.61;60.37;102492.78;5057095;28;45614;-77
2021/11/09 11:41:00;;;;;;;;;39.00;31.00;;;;;10.62;60.14;102489.28;5058205;28;45431;-77
2021/11/09 11:43:47;;;;;;;;;49.25;34.75;;;;;10.70;60.59;102487.47;5059955;28;45499;-77
2021/11/09 11:46:14;;;;;;;;;20.75;17.00;;;;;10.72;59.51;102480.44;5060656;28;45564;-77
2021/11/09 11:48:56;;;;;;;;;22.00;18.00;;;;;10.79;59.83;102481.31;5075147;28;46123;-77
2021/11/09 11:51:22;;;;;;;;;16.25;15.00;;;;;10.82;60.11;102464.59;5060985;28;45894;-77
2021/11/09 11:53:50;;;;;;;;;21.25;19.00;;;;;10.87;59.63;102468.06;5058914;28;45390;-77
2021/11/09 11:56:16;;;;;;;;;18.25;14.75;;;;;10.88;59.00;102467.22;5064002;28;45466;-78
2021/11/09 11:58:42;;;;;;;;;17.75;14.00;;;;;10.92;59.01;102468.91;5040817;28;45771;-78
2021/11/09 12:01:08;;;;;;;;;15.00;14.25;;;;;10.96;59.28;102460.16;5045249;28;45250;-77
2021/11/09 12:03:36;;;;;;;;;21.50;15.75;;;;;11.02;59.34;102462.72;5058873;28;45445;-78
2021/11/09 12:06:18;;;;;;;;;16.75;14.75;;;;;11.06;58.48;102457.44;5053480;28;45374;-78
2021/11/09 12:08:48;;;;;;;;;11.00;10.00;;;;;11.07;57.84;102449.53;5039459;28;45664;-77
2021/11/09 12:11:22;;;;;;;;;10.50;10.00;;;;;11.13;57.57;102462.66;5045891;28;45455;-77
2021/11/09 12:13:59;;;;;;;;;13.00;11.00;;;;;11.16;57.30;102450.34;5048736;28;45473;-77
2021/11/09 12:16:52;;;;;;;;;18.75;13.75;;;;;11.20;57.52;102445.03;5047481;28;45477;-78
2021/11/09 12:19:35;;;;;;;;;24.75;19.00;;;;;11.28;57.57;102437.09;5060496;28;46594;-77
2021/11/09 12:22:09;;;;;;;;;20.75;13.50;;;;;11.31;57.04;102433.56;5059025;28;45680;-77
2021/11/09 12:24:51;;;;;;;;;37.00;30.00;;;;;11.34;56.87;102434.41;5042092;28;45438;-78
2021/11/09 12:27:18;;;;;;;;;16.50;16.25;;;;;11.39;56.91;102425.56;5059746;28;45473;-78
2021/11/09 12:29:45;;;;;;;;;19.00;16.25;;;;;11.45;57.10;102426.41;5057832;28;46102;-78
2021/11/09 12:32:31;;;;;;;;;12.25;10.50;;;;;11.51;56.41;102420.19;5058648;28;45354;-78
2021/11/09 12:35:10;;;;;;;;;11.25;10.00;;;;;11.52;56.62;102413.16;5049011;28;45308;-78
2021/11/09 12:37:40;;;;;;;;;13.00;9.50;;;;;11.57;56.38;102420.16;5059147;28;45297;-78
2021/11/09 12:40:43;;;;;;;;;9.00;9.00;;;;;11.61;56.27;102420.09;5059356;28;46203;-78
2021/11/09 12:43:17;;;;;;;;;9.25;7.00;;;;;11.63;55.78;102420.97;5054080;28;45705;-78
2021/11/09 12:46:01;;;;;;;;;8.25;6.00;;;;;11.65;55.15;102419.19;5051700;28;45260;-77
2021/11/09 12:48:29;;;;;;;;;7.25;6.50;;;;;11.69;54.79;102405.97;5058545;28;45483;-77
2021/11/09 12:50:58;;;;;;;;;10.50;8.25;;;;;11.72;54.95;102417.34;5059544;28;45476;-77
2021/11/09 12:53:25;;;;;;;;;9.00;7.00;;;;;11.75;55.58;102407.69;5059728;28;45481;-77
2021/11/09 12:56:09;;;;;;;;;8.00;8.00;;;;;11.79;55.37;102419.03;5050203;28;45283;-78
2021/11/09 12:58:50;;;;;;;;;7.50;7.25;;;;;11.80;54.67;102413.75;5058453;28;45493;-77
2021/11/09 13:04:00;;;;;;;;;7.50;7.00;;;;;11.81;54.50;102404.09;5059272;28;45668;-77
2021/11/09 13:06:45;;;;;;;;;11.00;8.00;;;;;11.86;54.48;102404.91;5056554;28;45383;-77
2021/11/09 13:09:18;;;;;;;;;9.00;7.00;;;;;11.88;54.74;102392.56;5058727;28;45413;-77
2021/11/09 13:11:49;;;;;;;;;8.50;6.00;;;;;11.88;53.98;102403.13;5059369;28;45559;-77
2021/11/09 13:14:16;;;;;;;;;9.75;7.00;;;;;11.88;54.01;102400.47;5058667;28;45699;-78
2021/11/09 13:16:49;;;;;;;;;9.75;6.50;;;;;11.91;53.45;102396.94;5040583;28;45813;-78
2021/11/09 13:19:16;;;;;;;;;13.50;9.50;;;;;11.95;53.32;102400.44;5051332;28;45363;-77
2021/11/09 13:21:41;;;;;;;;;12.25;8.50;;;;;11.96;53.95;102395.13;5059190;28;46436;-77
2021/11/09 13:24:16;;;;;;;;;12.00;10.00;;;;;12.01;54.52;102390.69;5059310;28;45369;-78
2021/11/09 13:26:52;;;;;;;;;10.75;8.75;;;;;12.01;54.29;102385.41;5058028;28;45481;-77
2021/11/09 13:29:18;;;;;;;;;10.75;10.00;;;;;12.03;53.77;102390.66;5058849;28;45465;-77
2021/11/09 13:31:45;;;;;;;;;7.75;7.75;;;;;12.04;53.72;102395.91;5057547;28;46296;-78
2021/11/09 13:34:12;;;;;;;;;12.50;12.00;;;;;12.07;53.92;102388.84;5057149;28;45876;-77
2021/11/09 13:36:38;;;;;;;;;9.00;8.50;;;;;12.10;53.25;102392.31;5055785;28;45523;-77
2021/11/09 13:39:03;;;;;;;;;11.75;9.75;;;;;12.12;54.01;102390.53;5054751;28;45876;-78
2021/11/09 13:41:30;;;;;;;;;9.00;8.50;;;;;12.13;53.85;102381.75;5054081;28;45354;-78
2021/11/09 13:44:06;;;;;;;;;11.00;9.00;;;;;12.15;54.41;102379.97;5058464;28;45667;-78
2021/11/09 13:46:36;;;;;;;;;15.00;13.00;;;;;12.17;54.08;102379.97;5050834;28;46044;-78
2021/11/09 13:49:15;;;;;;;;;14.50;11.25;;;;;12.19;54.44;102374.69;5055986;28;45831;-78
2021/11/09 13:51:59;;;;;;;;;12.00;8.75;;;;;12.18;54.44;102373.78;5054352;28;45306;-78